Time;durP1;ratioP1;P1;durP2;ratioP2;P2;SDS_P1;SDS_P2;PMS_P1;PMS_P2;Temp;Humidity;BMP_temperature;BMP_pressure;BME280_temperature;BME280_humidity;BME280_pressure;Samples;Min_cycle;Max_cycle;Signal;HPM_P1;HPM_P2
2021/01/28 00:00:47;;;;;;;9.85;8.45;;;;;;;10.69;43.93;100375.56;4885322;28;96894;-75
2021/01/28 00:03:15;;;;;;;9.57;8.63;;;;;;;10.65;44.35;100373.63;4883157;28;97893;-74
2021/01/28 00:05:45;;;;;;;10.30;9.18;;;;;;;10.63;44.41;100368.31;4868609;28;97869;-76
2021/01/28 00:08:13;;;;;;;9.52;8.60;;;;;;;10.60;44.35;100360.25;4868028;28;96778;-75
2021/01/28 00:10:41;;;;;;;9.63;8.63;;;;;;;10.63;44.16;100365.69;4870362;28;97751;-74
2021/01/28 00:13:09;;;;;;;9.48;8.50;;;;;;;10.60;44.09;100360.25;4884555;28;98277;-75
2021/01/28 00:15:37;;;;;;;13.20;11.80;;;;;;;10.65;44.78;100366.66;4882143;28;98477;-77
2021/01/28 00:18:07;;;;;;;10.68;9.57;;;;;;;10.58;45.71;100361.03;4882128;28;97027;-76
2021/01/28 00:20:37;;;;;;;9.90;8.90;;;;;;;10.55;44.78;100353.91;4867743;28;97605;-75
2021/01/28 00:23:06;;;;;;;10.88;9.40;;;;;;;10.52;44.99;100345.91;4883903;28;98770;-73
2021/01/28 00:25:34;;;;;;;12.73;11.35;;;;;;;10.60;45.20;100354.13;4866303;28;98959;-74
2021/01/28 00:28:02;;;;;;;10.25;8.93;;;;;;;10.57;45.36;100340.84;4883651;28;97575;-73
2021/01/28 00:30:32;;;;;;;9.32;8.30;;;;;;;10.62;45.88;100341.97;4884776;28;97191;-77
2021/01/28 00:33:00;;;;;;;10.35;8.75;;;;;;;10.61;45.43;100341.06;4884424;28;98143;-76
2021/01/28 00:35:31;;;;;;;11.52;9.10;;;;;;;10.60;46.01;100333.13;4883415;28;98668;-73
2021/01/28 00:37:59;;;;;;;10.60;8.40;;;;;;;10.58;45.54;100334.78;4883402;28;98575;-75
2021/01/28 00:40:46;;;;;;;8.95;8.05;;;;;;;10.62;45.04;100331.47;4883962;28;97187;-77
2021/01/28 00:43:13;;;;;;;9.15;8.20;;;;;;;10.64;45.28;100327.16;4883483;28;99411;-76
2021/01/28 00:45:41;;;;;;;8.38;7.47;;;;;;;10.65;45.32;100326.34;4851740;28;97099;-75
2021/01/28 00:48:09;;;;;;;9.68;8.65;;;;;;;10.69;45.23;100328.28;4867571;28;97969;-76
2021/01/28 00:50:39;;;;;;;9.65;8.20;;;;;;;10.67;44.55;100325.59;4885023;28;97985;-76
2021/01/28 01:06:57;;;;;;;8.50;7.40;;;;;;;10.72;44.44;100292.53;4877888;28;97403;-75
2021/01/28 01:09:28;;;;;;;13.90;11.40;;;;;;;10.77;45.88;100311.13;4861264;28;98354;-77
2021/01/28 01:11:56;;;;;;;9.93;9.00;;;;;;;10.82;45.42;100314.88;4880635;28;100094;-74
2021/01/28 01:14:23;;;;;;;10.45;8.90;;;;;;;10.84;45.03;100313.19;4865428;28;97659;-76
2021/01/28 01:16:51;;;;;;;10.07;9.02;;;;;;;10.80;45.74;100306.03;4867259;28;97649;-76
2021/01/28 01:19:23;;;;;;;9.52;8.52;;;;;;;10.84;45.14;100306.22;4867307;28;97842;-76
2021/01/28 01:22:15;;;;;;;10.65;9.20;;;;;;;10.81;44.94;100311.34;4883898;28;98495;-75
2021/01/28 01:24:42;;;;;;;10.55;8.77;;;;;;;10.77;45.49;100311.13;4867810;28;97057;-75
2021/01/28 01:27:10;;;;;;;10.30;9.30;;;;;;;10.81;44.95;100307.81;4867350;28;96991;-76
2021/01/28 01:29:37;;;;;;;11.27;9.40;;;;;;;10.81;45.69;100297.28;4866821;28;98115;-78
2021/01/28 01:32:39;;;;;;;10.15;9.20;;;;;;;10.83;45.46;100300.91;4868166;28;97594;-74
2021/01/28 01:35:33;;;;;;;10.00;9.00;;;;;;;10.82;45.25;100307.00;4866832;28;97197;-73
2021/01/28 01:38:05;;;;;;;12.45;9.27;;;;;;;10.85;44.80;100305.41;4866158;28;97317;-74
2021/01/28 01:40:36;;;;;;;10.65;9.45;;;;;;;10.86;45.33;100301.00;4864206;28;97906;-75
2021/01/28 01:43:07;;;;;;;10.25;9.20;;;;;;;10.85;45.38;100301.84;4881678;28;97776;-74
2021/01/28 01:45:41;;;;;;;11.18;9.75;;;;;;;10.87;45.24;100297.56;4867171;28;98191;-75
2021/01/28 01:48:12;;;;;;;10.57;9.45;;;;;;;10.85;45.07;100296.59;4882476;28;97775;-76
2021/01/28 01:50:46;;;;;;;11.07;9.45;;;;;;;10.84;46.29;100300.94;4866342;28;99085;-73
2021/01/28 01:53:21;;;;;;;12.45;9.55;;;;;;;10.81;46.06;100300.81;4866946;28;97778;-73
2021/01/28 01:55:53;;;;;;;10.10;8.77;;;;;;;10.79;45.89;100297.22;4882684;28;97871;-74
2021/01/28 01:58:37;;;;;;;10.45;9.38;;;;;;;10.81;46.51;100297.28;4882595;28;98097;-73
2021/01/28 02:01:25;;;;;;;11.02;9.45;;;;;;;10.84;45.46;100294.78;4878712;28;101761;-76
2021/01/28 02:04:24;;;;;;;10.32;8.95;;;;;;;10.89;45.13;100293.28;4863430;28;97768;-74
2021/01/28 02:07:20;;;;;;;10.75;8.68;;;;;;;10.92;45.31;100293.41;4879840;28;98463;-74
2021/01/28 02:10:14;;;;;;;9.63;8.73;;;;;;;10.91;45.13;100287.25;4878399;28;98089;-76
2021/01/28 02:13:11;;;;;;;13.20;11.80;;;;;;;11.03;46.12;100276.38;4826613;28;99374;-76
2021/01/28 02:15:45;;;;;;;14.77;12.07;;;;;;;11.13;46.38;100268.06;4863589;28;99012;-73
2021/01/28 02:18:13;;;;;;;14.18;12.68;;;;;;;11.22;46.54;100266.72;4877137;28;97392;-76
2021/01/28 02:20:59;;;;;;;10.20;9.20;;;;;;;11.27;46.76;100258.13;4849217;28;97834;-77
2021/01/28 02:23:43;;;;;;;12.57;11.27;;;;;;;11.37;46.69;100245.41;4883699;28;97869;-74
2021/01/28 02:26:21;;;;;;;12.98;11.57;;;;;;;11.42;46.87;100243.88;4880548;28;99155;-75
2021/01/28 02:28:49;;;;;;;12.68;11.35;;;;;;;11.47;47.13;100249.31;4881211;28;97086;-75
2021/01/28 02:31:18;;;;;;;15.85;11.82;;;;;;;11.54;46.82;100246.09;4866576;28;97086;-74
2021/01/28 02:33:48;;;;;;;10.07;9.07;;;;;;;11.56;46.22;100247.97;4883129;28;98157;-77
2021/01/28 02:36:31;;;;;;;12.38;10.88;;;;;;;11.66;46.08;100244.88;4880989;28;98016;-73
2021/01/28 02:39:11;;;;;;;9.27;8.30;;;;;;;11.63;46.49;100247.38;4849694;28;97956;-76
2021/01/28 02:41:42;;;;;;;12.57;11.03;;;;;;;11.71;46.30;100232.84;4864444;28;97513;-73
2021/01/28 02:44:21;;;;;;;12.93;11.37;;;;;;;11.78;46.22;100229.63;4863706;28;97032;-73
2021/01/28 02:47:09;;;;;;;10.55;9.20;;;;;;;11.74;46.14;100227.69;4860696;28;100232;-73
2021/01/28 02:50:04;;;;;;;9.10;8.23;;;;;;;11.74;45.97;100224.16;4882196;28;96816;-73
2021/01/28 02:52:32;;;;;;;10.32;9.15;;;;;;;11.77;45.82;100224.28;4864991;28;97028;-72
2021/01/28 02:55:08;;;;;;;10.18;8.55;;;;;;;11.72;45.82;100223.19;4865627;28;98977;-72
2021/01/28 02:57:37;;;;;;;9.95;8.35;;;;;;;11.70;46.10;100220.50;4864326;28;98028;-72
2021/01/28 03:00:07;;;;;;;10.38;8.52;;;;;;;11.65;46.05;100211.53;4879677;28;98101;-73
2021/01/28 03:02:35;;;;;;;10.45;8.95;;;;;;;11.61;46.27;100219.19;4847045;28;97899;-72
2021/01/28 03:05:03;;;;;;;11.90;10.20;;;;;;;11.58;46.03;100219.09;4865073;28;99200;-73
2021/01/28 03:07:40;;;;;;;11.88;9.35;;;;;;;11.55;46.14;100214.59;4863954;28;98494;-73
2021/01/28 03:10:09;;;;;;;13.45;10.38;;;;;;;11.56;45.79;100220.75;4882748;28;97343;-74
2021/01/28 03:12:57;;;;;;;13.63;10.48;;;;;;;11.56;45.58;100220.75;4881574;28;96810;-73
2021/01/28 03:15:51;;;;;;;13.65;9.90;;;;;;;11.61;45.82;100208.69;4876161;28;96889;-74
2021/01/28 03:18:19;;;;;;;13.93;10.77;;;;;;;11.64;45.69;100214.97;4883070;28;98355;-74
2021/01/28 03:20:47;;;;;;;14.45;10.75;;;;;;;11.68;45.81;100218.63;4882397;28;96899;-73
2021/01/28 03:23:28;;;;;;;15.65;11.48;;;;;;;11.68;45.80;100206.38;4850262;28;98445;-73
2021/01/28 03:26:15;;;;;;;16.95;11.88;;;;;;;11.69;45.44;100205.56;4890294;28;97739;-73
2021/01/28 03:28:45;;;;;;;25.67;17.08;;;;;;;11.77;46.27;100201.47;4863775;28;98044;-74
2021/01/28 03:31:20;;;;;;;18.83;12.48;;;;;;;11.79;45.93;100199.81;4865154;28;96898;-74
2021/01/28 03:33:49;;;;;;;18.27;12.15;;;;;;;11.79;45.85;100198.91;4865563;28;97573;-74
2021/01/28 03:36:17;;;;;;;19.63;12.73;;;;;;;11.82;46.00;100201.69;4865806;28;97983;-73
2021/01/28 03:38:46;;;;;;;15.82;11.15;;;;;;;11.82;45.87;100192.06;4880810;28;97812;-74
2021/01/28 03:41:14;;;;;;;14.93;11.82;;;;;;;11.81;46.12;100198.16;4865478;28;96924;-74
2021/01/28 03:43:42;;;;;;;15.05;10.88;;;;;;;11.81;46.05;100197.25;4864326;28;97312;-74
2021/01/28 03:46:12;;;;;;;17.13;11.93;;;;;;;11.85;45.83;100199.16;4864329;28;97656;-74
2021/01/28 03:48:48;;;;;;;16.30;11.50;;;;;;;11.84;45.90;100193.00;4880679;28;98282;-74
2021/01/28 03:51:35;;;;;;;15.63;11.40;;;;;;;11.82;45.84;100199.06;4879592;28;97257;-73
2021/01/28 03:54:21;;;;;;;17.30;11.88;;;;;;;11.81;45.72;100191.97;4882300;28;97232;-73
2021/01/28 03:56:58;;;;;;;19.42;11.68;;;;;;;11.78;46.11;100192.78;4864283;28;99306;-74
2021/01/28 03:59:26;;;;;;;16.30;11.43;;;;;;;11.82;45.81;100193.78;4864531;28;98239;-73
2021/01/28 04:02:17;;;;;;;17.25;12.43;;;;;;;11.82;45.96;100183.25;4861201;28;97790;-73
2021/01/28 04:05:04;;;;;;;16.05;10.95;;;;;;;11.77;45.88;100185.69;4881674;28;97657;-73
2021/01/28 04:07:51;;;;;;;16.33;11.23;;;;;;;11.76;45.90;100183.91;4880397;28;97247;-74
2021/01/28 04:10:25;;;;;;;17.20;11.70;;;;;;;11.78;46.02;100184.88;4865673;28;98299;-74
2021/01/28 04:12:55;;;;;;;19.58;12.43;;;;;;;11.80;46.02;100185.84;4868228;28;97206;-73
2021/01/28 04:15:33;;;;;;;15.73;11.00;;;;;;;11.79;45.63;100189.28;4867447;28;97094;-71
2021/01/28 04:18:04;;;;;;;22.17;16.77;;;;;;;11.86;46.41;100182.56;4865535;28;97861;-73
2021/01/28 04:20:39;;;;;;;16.70;12.70;;;;;;;11.87;46.19;100181.69;4883778;28;99299;-74
2021/01/28 04:23:13;;;;;;;15.60;11.10;;;;;;;11.89;46.12;100177.38;4867092;28;97058;-74
2021/01/28 04:26:04;;;;;;;18.00;12.05;;;;;;;11.88;46.37;100171.22;4880044;28;97280;-73
2021/01/28 04:28:35;;;;;;;16.58;10.90;;;;;;;11.89;46.11;100173.03;4865901;28;97861;-74
2021/01/28 04:31:22;;;;;;;16.02;11.00;;;;;;;11.88;46.27;100167.69;4883877;28;97613;-74
2021/01/28 04:33:50;;;;;;;16.55;10.18;;;;;;;11.88;46.10;100165.06;4867061;28;97201;-74
2021/01/28 04:36:24;;;;;;;15.70;10.88;;;;;;;11.84;46.06;100165.81;4867821;28;97769;-73
2021/01/28 04:39:15;;;;;;;15.15;11.15;;;;;;;11.81;46.21;100169.19;4880787;28;97343;-73
2021/01/28 04:41:44;;;;;;;15.80;10.88;;;;;;;11.80;46.39;100159.53;4867413;28;96968;-73
2021/01/28 04:44:13;;;;;;;15.32;10.82;;;;;;;11.77;46.22;100159.38;4884339;28;97184;-72
2021/01/28 04:46:53;;;;;;;16.45;11.48;;;;;;;11.77;46.51;100159.38;4882912;28;97787;-74
2021/01/28 04:49:44;;;;;;;16.25;11.05;;;;;;;11.76;46.08;100154.97;4885000;28;99946;-73
2021/01/28 04:52:27;;;;;;;15.65;10.70;;;;;;;11.76;45.94;100157.59;4884042;28;98602;-74
2021/01/28 04:55:24;;;;;;;15.52;10.60;;;;;;;11.75;46.10;100150.53;4883152;28;97449;-74
2021/01/28 04:57:56;;;;;;;15.68;10.23;;;;;;;11.74;45.75;100154.03;4882734;28;97502;-74
2021/01/28 05:00:41;;;;;;;14.35;10.07;;;;;;;11.75;46.33;100144.41;4864466;28;99133;-74
2021/01/28 05:03:18;;;;;;;15.02;10.63;;;;;;;11.74;46.01;100143.50;4866602;28;98912;-75
2021/01/28 05:06:00;;;;;;;12.80;9.90;;;;;;;11.72;46.39;100144.25;4882546;28;97561;-75
2021/01/28 05:08:56;;;;;;;13.73;10.02;;;;;;;11.74;46.03;100151.38;4882190;28;97181;-74
2021/01/28 05:11:52;;;;;;;12.80;10.13;;;;;;;11.71;46.31;100148.66;4880858;28;97906;-74
2021/01/28 05:14:26;;;;;;;15.35;10.65;;;;;;;11.72;46.20;100149.53;4883867;28;98002;-74
2021/01/28 05:17:20;;;;;;;14.43;10.23;;;;;;;11.77;46.46;100145.34;4883510;28;97321;-75
2021/01/28 05:20:10;;;;;;;13.63;9.93;;;;;;;11.74;46.22;100142.59;4884124;28;96848;-73
2021/01/28 05:23:04;;;;;;;15.73;10.48;;;;;;;11.75;46.37;100136.50;4867548;28;98051;-73
2021/01/28 05:25:43;;;;;;;15.48;10.48;;;;;;;11.75;46.25;100133.88;4883237;28;99724;-74
2021/01/28 05:28:23;;;;;;;15.85;10.77;;;;;;;11.76;46.26;100136.56;4883977;28;96983;-72
2021/01/28 05:31:16;;;;;;;13.75;10.82;;;;;;;11.78;46.35;100132.25;4884266;28;97512;-72
2021/01/28 05:33:46;;;;;;;14.88;11.23;;;;;;;11.78;45.96;100127.00;4865918;28;97087;-74
2021/01/28 05:36:43;;;;;;;15.55;10.15;;;;;;;11.76;46.22;100109.34;4883130;28;97891;-74
2021/01/28 05:39:31;;;;;;;16.83;12.10;;;;;;;11.72;47.57;100120.59;4866487;28;97867;-73
2021/01/28 05:42:08;;;;;;;16.83;10.30;;;;;;;11.74;46.53;100114.56;4851506;28;97500;-76
2021/01/28 05:44:39;;;;;;;15.25;11.23;;;;;;;11.75;46.14;100120.72;4881284;28;97621;-77
2021/01/28 05:47:13;;;;;;;14.93;10.60;;;;;;;11.75;45.87;100115.47;4868172;28;96806;-76
2021/01/28 05:50:16;;;;;;;16.88;11.73;;;;;;;11.78;46.20;100105.94;4878702;28;98046;-75
2021/01/28 05:52:44;;;;;;;17.92;11.98;;;;;;;11.80;46.08;100117.44;4865969;28;97657;-74
2021/01/28 05:55:19;;;;;;;15.85;11.52;;;;;;;11.78;46.23;100113.84;4866210;28;97441;-75
2021/01/28 05:57:53;;;;;;;14.98;11.20;;;;;;;11.79;45.94;100117.34;4866365;28;97102;-74
2021/01/28 06:00:26;;;;;;;17.58;11.68;;;;;;;11.80;46.17;100121.78;4880653;28;97476;-76
2021/01/28 06:03:17;;;;;;;15.48;10.48;;;;;;;11.81;45.78;100119.19;4866070;28;97156;-75
2021/01/28 06:06:25;;;;;;;24.17;17.77;;;;;;;11.86;46.49;100120.25;4867548;28;98197;-73
2021/01/28 06:09:19;;;;;;;17.58;11.95;;;;;;;11.89;46.59;100115.13;4864168;28;97691;-74
2021/01/28 06:12:06;;;;;;;17.77;12.45;;;;;;;11.90;47.13;100118.63;4881665;28;97987;-74
2021/01/28 06:15:02;;;;;;;19.02;12.15;;;;;;;11.93;46.46;100119.66;4873417;28;97123;-77
2021/01/28 06:18:16;;;;;;;18.42;12.07;;;;;;;11.95;46.71;100112.69;4881742;28;98973;-76
2021/01/28 06:21:05;;;;;;;18.60;12.25;;;;;;;11.93;46.34;100101.22;4882878;28;97747;-76
2021/01/28 06:23:58;;;;;;;20.13;12.75;;;;;;;11.95;46.47;100098.69;4883179;28;97977;-77
2021/01/28 06:26:33;;;;;;;20.20;12.75;;;;;;;11.97;46.14;100097.88;4867647;28;97469;-77
2021/01/28 06:29:29;;;;;;;24.60;17.02;;;;;;;12.05;46.29;100103.41;4865777;28;97279;-75
2021/01/28 06:32:10;;;;;;;25.27;17.88;;;;;;;12.16;46.50;100104.69;4879911;28;97940;-75
2021/01/28 06:35:06;;;;;;;24.73;16.92;;;;;;;12.26;46.81;100103.28;4887281;28;97608;-76
2021/01/28 06:38:00;;;;;;;17.92;12.73;;;;;;;12.20;46.50;100101.34;4882968;28;98397;-75
2021/01/28 06:40:50;;;;;;;17.38;11.88;;;;;;;12.17;46.53;100104.75;4885979;28;100174;-77
2021/01/28 06:43:48;;;;;;;17.58;11.55;;;;;;;12.15;46.67;100100.28;4880791;28;99030;-75
2021/01/28 06:46:49;;;;;;;17.88;11.70;;;;;;;12.11;46.45;100104.56;4885432;28;97316;-75
2021/01/28 06:49:44;;;;;;;20.35;12.98;;;;;;;12.02;46.64;100106.81;4886856;28;97676;-76
2021/01/28 06:52:21;;;;;;;18.83;12.50;;;;;;;12.02;46.57;100098.91;4849939;28;99952;-76
2021/01/28 06:54:54;;;;;;;19.67;11.70;;;;;;;11.98;46.60;100097.03;4882030;28;98213;-76
2021/01/28 06:58:01;;;;;;;19.40;12.45;;;;;;;11.95;46.57;100094.28;4879950;28;97565;-75
2021/01/28 07:00:44;;;;;;;20.42;12.30;;;;;;;11.92;46.44;100086.28;4864568;28;97318;-76
2021/01/28 07:03:36;;;;;;;20.75;11.80;;;;;;;11.94;46.40;100081.06;4880269;28;98620;-77
2021/01/28 07:06:38;;;;;;;24.23;16.52;;;;;;;12.01;46.92;100069.91;4878845;28;99452;-77
2021/01/28 07:09:14;;;;;;;24.52;17.13;;;;;;;12.08;46.90;100066.66;4865607;28;98102;-77
2021/01/28 07:11:55;;;;;;;20.45;12.73;;;;;;;12.07;46.76;100073.69;4881890;28;96801;-77
2021/01/28 07:14:47;;;;;;;25.75;17.63;;;;;;;12.15;46.83;100066.94;4883479;28;98332;-78
2021/01/28 07:17:37;;;;;;;19.90;12.60;;;;;;;12.15;46.61;100068.69;4882834;28;98225;-77
2021/01/28 07:20:13;;;;;;;20.05;12.30;;;;;;;12.19;46.51;100057.41;4886846;28;97734;-77
2021/01/28 07:22:45;;;;;;;25.17;16.73;;;;;;;12.28;46.44;100054.22;4884751;28;97829;-74
2021/01/28 07:25:25;;;;;;;23.15;13.15;;;;;;;12.26;46.43;100045.38;4866847;28;97998;-76
2021/01/28 07:27:57;;;;;;;20.42;12.60;;;;;;;12.22;46.28;100049.63;4883307;28;98102;-77
2021/01/28 07:30:38;;;;;;;18.63;11.65;;;;;;;12.17;46.45;100043.31;4883891;28;97280;-77
2021/01/28 07:33:05;;;;;;;20.02;12.68;;;;;;;12.13;46.69;100044.91;4882408;28;97742;-76
2021/01/28 07:35:48;;;;;;;26.05;16.58;;;;;;;12.21;46.80;100042.56;4865412;28;97936;-77
2021/01/28 07:38:49;;;;;;;25.35;16.27;;;;;;;12.29;46.48;100050.72;4864516;28;97827;-77
2021/01/28 07:41:40;;;;;;;18.17;12.23;;;;;;;12.25;46.46;100049.72;4882878;28;97350;-75
2021/01/28 07:44:49;;;;;;;18.10;11.15;;;;;;;12.20;46.43;100046.94;4883139;28;97056;-76
2021/01/28 07:47:55;;;;;;;17.33;12.30;;;;;;;12.18;46.54;100053.91;4877497;28;97325;-75
2021/01/28 07:51:32;;;;;;;21.27;12.35;;;;;;;12.18;46.58;100048.63;4887004;28;97254;-76
2021/01/28 07:54:01;;;;;;;16.33;11.48;;;;;;;12.17;46.18;100054.72;4888095;28;97616;-78
2021/01/28 07:56:49;;;;;;;19.15;12.25;;;;;;;12.20;46.33;100043.41;4869190;28;97674;-78
2021/01/28 07:59:35;;;;;;;18.20;11.15;;;;;;;12.22;46.02;100044.38;4868307;28;98007;-77
2021/01/28 08:02:19;;;;;;;17.45;12.38;;;;;;;12.26;46.29;100040.09;4886981;28;99311;-78
2021/01/28 08:04:50;;;;;;;17.83;12.20;;;;;;;12.28;46.08;100048.94;4885375;28;98267;-79
2021/01/28 08:07:24;;;;;;;24.88;16.75;;;;;;;12.36;46.02;100036.91;4886089;28;97394;-77
2021/01/28 08:09:54;;;;;;;20.30;13.23;;;;;;;12.31;46.22;100044.69;4885802;28;97894;-79
2021/01/28 08:12:27;;;;;;;20.13;12.02;;;;;;;12.26;46.22;100054.16;4888033;28;98162;-78
2021/01/28 08:14:55;;;;;;;17.60;12.45;;;;;;;12.22;45.85;100053.13;4883299;28;96926;-77
2021/01/28 08:17:27;;;;;;;18.15;11.50;;;;;;;12.16;46.44;100058.22;4868568;28;97784;-78
2021/01/28 08:20:20;;;;;;;24.92;16.92;;;;;;;12.24;46.38;100055.84;4869180;28;99077;-78
2021/01/28 08:22:52;;;;;;;23.60;16.73;;;;;;;12.33;46.20;100050.00;4885629;28;99805;-79
2021/01/28 08:25:21;;;;;;;26.20;17.13;;;;;;;12.42;46.41;100042.41;4885990;28;97554;-75
2021/01/28 08:27:48;;;;;;;20.65;14.27;;;;;;;12.43;46.20;100044.19;4888507;28;97665;-77
2021/01/28 08:30:20;;;;;;;19.88;12.20;;;;;;;12.45;46.09;100040.78;4887969;28;97529;-80
2021/01/28 08:32:56;;;;;;;23.88;16.33;;;;;;;12.53;46.11;100034.03;4872000;28;99402;-78
2021/01/28 08:35:26;;;;;;;19.45;12.75;;;;;;;12.53;45.93;100035.75;4868438;28;97876;-78
2021/01/28 08:38:08;;;;;;;19.77;11.77;;;;;;;12.50;45.80;100036.53;4886156;28;98216;-77
2021/01/28 08:40:36;;;;;;;20.08;12.85;;;;;;;12.52;45.87;100036.63;4885918;28;97898;-77
2021/01/28 08:43:08;;;;;;;18.25;11.90;;;;;;;12.52;45.77;100044.53;4884326;28;98086;-79
2021/01/28 08:45:35;;;;;;;15.23;11.20;;;;;;;12.53;45.66;100036.66;4886446;28;97208;-78
2021/01/28 08:48:05;;;;;;;15.90;11.23;;;;;;;12.57;45.83;100029.75;4886342;28;96888;-77
2021/01/28 08:50:34;;;;;;;17.33;11.82;;;;;;;12.59;45.79;100035.97;4885134;28;99164;-77
2021/01/28 08:53:04;;;;;;;15.65;11.10;;;;;;;12.61;45.78;100029.88;4886407;28;97751;-78
2021/01/28 08:55:34;;;;;;;15.88;11.60;;;;;;;12.63;45.45;100029.94;4870361;28;97776;-77
2021/01/28 08:58:06;;;;;;;16.77;10.77;;;;;;;12.63;45.33;100017.66;4884263;28;98930;-78
2021/01/28 09:00:38;;;;;;;17.05;11.30;;;;;;;12.64;45.55;100013.28;4885794;28;97973;-78
2021/01/28 09:03:06;;;;;;;17.00;10.85;;;;;;;12.65;45.50;100013.34;4885744;28;97832;-79
2021/01/28 09:05:35;;;;;;;16.88;11.07;;;;;;;12.65;45.48;99996.63;4869770;28;97268;-79
2021/01/28 09:08:06;;;;;;;17.42;10.73;;;;;;;12.66;45.52;100011.63;4868874;28;97265;-78
2021/01/28 09:10:37;;;;;;;17.75;11.75;;;;;;;12.64;45.57;99998.41;4885634;28;99056;-76
2021/01/28 09:13:16;;;;;;;14.25;10.48;;;;;;;12.66;45.71;100011.63;4887120;28;99079;-77
2021/01/28 09:15:44;;;;;;;16.13;10.55;;;;;;;12.70;45.46;100008.25;4882634;28;97574;-76
2021/01/28 09:18:18;;;;;;;18.40;11.68;;;;;;;12.73;45.31;100013.59;4879597;28;98000;-72
2021/01/28 09:20:45;;;;;;;21.97;14.57;;;;;;;12.81;45.24;99999.81;4882806;28;97825;-75
2021/01/28 09:23:15;;;;;;;18.48;12.02;;;;;;;12.81;45.16;100006.84;4885295;28;97893;-76
2021/01/28 09:25:43;;;;;;;15.75;10.80;;;;;;;12.80;45.20;100005.03;4880342;28;97276;-74
2021/01/28 09:28:13;;;;;;;14.13;10.43;;;;;;;12.80;45.23;100003.31;4863187;28;96887;-77
2021/01/28 09:30:43;;;;;;;15.10;10.48;;;;;;;12.81;45.41;100006.84;4881474;28;97743;-77
2021/01/28 09:33:34;;;;;;;16.33;10.63;;;;;;;12.84;45.13;99997.28;4882528;28;97972;-77
2021/01/28 09:36:04;;;;;;;13.82;10.15;;;;;;;12.85;45.12;99996.44;4883257;28;97577;-76
2021/01/28 09:38:32;;;;;;;14.63;9.82;;;;;;;12.89;45.02;100005.31;4867678;28;97634;-76
2021/01/28 09:41:12;;;;;;;15.05;9.75;;;;;;;12.95;44.98;100005.53;4866590;28;100080;-74
2021/01/28 09:43:39;;;;;;;20.75;11.63;;;;;;;12.99;44.79;99997.75;4880005;28;98262;-76
2021/01/28 09:46:14;;;;;;;21.13;14.37;;;;;;;13.02;44.74;99992.63;4876422;28;97861;-75
2021/01/28 09:48:42;;;;;;;22.75;15.15;;;;;;;13.08;44.57;99995.41;4884871;28;96791;-76
2021/01/28 09:51:13;;;;;;;16.63;11.35;;;;;;;13.10;44.80;99995.50;4868695;28;98128;-75
2021/01/28 09:54:00;;;;;;;14.27;10.70;;;;;;;13.09;44.66;99988.41;4881452;28;98295;-76
2021/01/28 09:56:29;;;;;;;17.42;10.00;;;;;;;13.04;44.66;99982.09;4861517;28;98389;-74
2021/01/28 09:58:57;;;;;;;13.68;9.95;;;;;;;13.01;44.86;99974.94;4878269;28;99642;-76
2021/01/28 10:01:25;;;;;;;12.27;9.23;;;;;;;13.03;44.82;99972.41;4880874;28;99442;-77
2021/01/28 10:03:52;;;;;;;14.18;9.38;;;;;;;13.06;44.75;99967.25;4866478;28;97892;-78
2021/01/28 10:06:19;;;;;;;14.93;10.90;;;;;;;13.05;44.73;99960.16;4881296;28;97293;-75
2021/01/28 10:08:47;;;;;;;18.33;10.52;;;;;;;13.09;44.64;99957.66;4865505;28;98519;-77
2021/01/28 10:11:16;;;;;;;15.30;10.93;;;;;;;13.14;44.54;99947.25;4867562;28;99186;-76
2021/01/28 10:13:43;;;;;;;13.82;9.80;;;;;;;13.17;44.42;99950.00;4883741;28;98047;-76
2021/01/28 10:16:12;;;;;;;15.20;9.85;;;;;;;13.21;44.25;99936.03;4884700;28;96863;-77
2021/01/28 10:18:39;;;;;;;15.70;10.10;;;;;;;13.26;44.27;99929.16;4884738;28;98375;-77
2021/01/28 10:21:07;;;;;;;14.23;9.95;;;;;;;13.30;44.16;99914.31;4881838;28;97973;-78
2021/01/28 10:23:34;;;;;;;13.48;9.45;;;;;;;13.31;44.20;99917.00;4883261;28;98261;-77
2021/01/28 10:26:04;;;;;;;14.43;9.95;;;;;;;13.30;44.11;99909.94;4883233;28;97337;-79
2021/01/28 10:28:32;;;;;;;14.07;9.98;;;;;;;13.33;44.01;99899.47;4885686;28;97640;-77
2021/01/28 10:31:01;;;;;;;13.65;9.73;;;;;;;13.34;44.16;99895.97;4881979;28;98570;-76
2021/01/28 10:33:30;;;;;;;16.88;10.77;;;;;;;13.38;43.99;99891.66;4880672;28;99466;-75
2021/01/28 10:35:58;;;;;;;14.27;9.85;;;;;;;13.41;43.97;99881.22;4848977;28;97824;-77
2021/01/28 10:38:26;;;;;;;15.02;9.70;;;;;;;13.39;43.94;99868.00;4879597;28;98353;-75
2021/01/28 10:40:53;;;;;;;14.88;10.05;;;;;;;13.37;44.08;99869.69;4865129;28;99184;-78
2021/01/28 10:43:21;;;;;;;15.73;9.95;;;;;;;13.38;44.05;99874.09;4883671;28;101752;-78
2021/01/28 10:45:50;;;;;;;15.15;9.73;;;;;;;13.37;43.80;99877.59;4882943;28;97853;-76
2021/01/28 10:48:18;;;;;;;14.70;9.38;;;;;;;13.31;43.92;99879.16;4870805;28;97061;-76
2021/01/28 10:50:47;;;;;;;16.25;9.88;;;;;;;13.29;43.93;99881.75;4869442;28;101643;-80
2021/01/28 10:53:15;;;;;;;13.23;8.60;;;;;;;13.31;43.88;99881.78;4887595;28;99338;-81
2021/01/28 10:55:42;;;;;;;14.23;9.13;;;;;;;13.28;43.97;99871.16;4874542;28;98691;-80
2021/01/28 10:58:12;;;;;;;16.17;10.43;;;;;;;13.28;43.83;99873.81;4857374;28;97757;-77
2021/01/28 11:00:39;;;;;;;14.48;9.32;;;;;;;13.29;43.78;99875.59;4872573;28;99612;-78
2021/01/28 11:03:07;;;;;;;15.32;9.48;;;;;;;13.30;43.82;99874.75;4873412;28;101087;-76
2021/01/28 11:05:36;;;;;;;15.00;9.60;;;;;;;13.30;43.64;99865.09;4881152;28;97791;-75
2021/01/28 11:08:04;;;;;;;15.15;9.50;;;;;;;13.33;43.96;99864.28;4882439;28;97381;-75
2021/01/28 11:10:32;;;;;;;15.45;9.15;;;;;;;13.30;43.71;99875.66;4881475;28;99322;-75
2021/01/28 11:13:00;;;;;;;14.77;9.77;;;;;;;13.29;43.76;99873.84;4881376;28;99340;-75
2021/01/28 11:15:31;;;;;;;16.88;9.68;;;;;;;13.33;43.42;99867.81;4880053;28;97344;-77
2021/01/28 11:17:59;;;;;;;131.23;60.67;;;;;;;13.35;43.53;99860.84;4864285;28;97301;-75
2021/01/28 11:20:28;;;;;;;92.20;41.70;;;;;;;13.37;43.42;99868.78;4882920;28;98610;-75
2021/01/28 11:22:55;;;;;;;46.58;23.60;;;;;;;13.36;43.62;99861.75;4882042;28;97628;-74
2021/01/28 11:25:24;;;;;;;69.65;34.45;;;;;;;13.34;43.57;99856.41;4883506;28;97187;-74
2021/01/28 11:27:52;;;;;;;61.55;32.60;;;;;;;13.35;43.44;99855.56;4883497;28;98135;-76
2021/01/28 11:30:23;;;;;;;25.50;15.82;;;;;;;13.34;43.53;99851.13;4866707;28;99454;-75
2021/01/28 11:32:50;;;;;;;18.73;10.45;;;;;;;13.36;43.65;99857.34;4883973;28;98125;-75
2021/01/28 11:35:19;;;;;;;20.30;11.20;;;;;;;13.32;43.43;99849.31;4868498;28;98047;-74
2021/01/28 11:37:49;;;;;;;17.40;10.43;;;;;;;13.34;43.61;99843.22;4883918;28;97053;-75
2021/01/28 11:40:19;;;;;;;17.83;10.73;;;;;;;13.33;43.50;99841.44;4883039;28;98240;-76
2021/01/28 11:42:46;;;;;;;17.00;10.32;;;;;;;13.31;43.43;99837.84;4884867;28;97998;-75
2021/01/28 11:45:15;;;;;;;16.25;10.07;;;;;;;13.32;43.36;99838.75;4886297;28;97140;-76
2021/01/28 11:47:42;;;;;;;18.13;10.48;;;;;;;13.28;43.54;99823.69;4868151;28;97603;-75
2021/01/28 11:50:11;;;;;;;17.48;10.52;;;;;;;13.28;43.70;99828.97;4869190;28;99273;-75
2021/01/28 11:52:39;;;;;;;18.17;10.63;;;;;;;13.29;43.53;99831.66;4886680;28;97560;-77
2021/01/28 11:55:12;;;;;;;18.13;10.00;;;;;;;13.32;43.32;99823.81;4887887;28;98270;-74
2021/01/28 11:57:40;;;;;;;13.93;9.10;;;;;;;13.32;43.31;99825.56;4885805;28;97480;-77
2021/01/28 12:00:09;;;;;;;17.20;9.90;;;;;;;13.34;43.42;99824.75;4885144;28;98493;-75
2021/01/28 12:02:38;;;;;;;14.60;9.63;;;;;;;13.33;43.30;99824.72;4884587;28;99676;-76
2021/01/28 12:05:08;;;;;;;15.65;9.52;;;;;;;13.33;43.23;99815.06;4884709;28;98092;-76
2021/01/28 12:07:35;;;;;;;17.85;9.65;;;;;;;13.33;43.33;99815.06;4884630;28;97868;-75
2021/01/28 12:10:05;;;;;;;15.35;8.95;;;;;;;13.34;43.11;99815.97;4885775;28;98389;-74